« Back
NWS Peachtree City, Ga » Text Product » AHN Terminal Aerodrome Forecast


Printer-friendly Version
Current Version              Previous Versions:   1  2  3  4  5  6  7  8  9  

Terminal Aerodrome Forecast

880
FTUS42 KFFC 251056 AAA
TAFAHN
TAF AMD
KAHN 251056Z 2511/2606 13005KT P6SM BKN025
     FM251200 09005KT P6SM BKN015
     FM251500 13006KT P6SM VCSH BKN025
     FM252000 13005KT P6SM VCSH BKN035 PROB30 2520/2524 VRB15G25KT
      3SM TSRA BR BKN025CB=

USA.gov is the U.S. government's official web portal to all federal, state and local government web resources and services.